Indigo AT72 at Hubli on Jun 14th 2021, burst tyres on landing

Last Update: June 24, 2021 / 16:42:55 GMT/Zulu time

Bookmark this article
Incident Facts

Date of incident
Jun 14, 2021

Classification
Incident

Flight number
6E-7979

Departure
Kannur, India

Destination
Hubli, India

Aircraft Registration
VT-IYX

Aircraft Type
ATR ATR-72-200

ICAO Type Designator
AT72

An Indigo Avions de Transport Regional ATR-72-212A, registration VT-IYX performing flight 6E-7979 from Kannur to Hubli (India) with 7 passengers and 4 crew, was on final approach to Hubli's runway 26 at 20:00L (14:30Z) when after touchdown the crew decided to reject landing due to strong gusting crosswinds and went around. The aircraft entered a hold and performed another approach to runway 26 about 30 minutes later and landed without further incident, but became disabled on the runway due to both nose gear tyres blown.

The runway was closed for about 4 hours until the aircraft could be moved off the runway.

The airport reported the aircraft performed a balked landing due to heavy winds and bad weather and landed about 30 minutes later. Soon after touchdown the crew reported they suspected blown tyres and stopped on the runway. 18 passengers booked onto the onward leg to Bangalore were delayed due to the cancellation of the onward sector.

On Jun 24th 2021 India's AIB reported: "The aircraft made a balked landing at Hubli airport. After landing, both nose gear tires burst." and rated the occurrence a serious incident. The occurrence is under investigation.

Metars:
VOHB 150030Z 28009KT 6000 SCT008 SCT012 BKN080 22/21 Q1007=
VOHB 141200Z 24010KT 9999 SCT008 SCT012 BKN080 24/22 Q1007=
VOHB 141100Z 26009KT 9999 SCT008 SCT012 BKN080 25/21 Q1006=
VOHB 141000Z 24008KT 9999 SCT010 SCT015 BKN080 26/20 Q1006=
VOHB 140900Z 24009KT 9999 FEW010 SCT015 BKN080 26/20 Q1007=
VOHB 140800Z 25011KT 9999 FEW010 SCT015 BKN080 26/20 Q1007=
Incident Facts

Date of incident
Jun 14, 2021

Classification
Incident

Flight number
6E-7979

Departure
Kannur, India

Destination
Hubli, India

Aircraft Registration
VT-IYX

Aircraft Type
ATR ATR-72-200

ICAO Type Designator
AT72

This article is published under license from Avherald.com. © of text by Avherald.com.
Article source

You can read 4 more free articles without a subscription.

Subscribe now and continue reading without any limits!

Are you a subscriber?
Login
Subscribe

Read unlimited articles and receive our daily update briefing. Gain better insights into what is happening in commercial aviation safety.

Free newsletter

Want to know more and stay ahead? Get our free weekly newsletter and join 5141 existing subscribers.

By subscribing, you accept our terms and conditions and confirm that you've read our privacy policy.

Send tip

Support AeroInside by sending a small tip amount.

Related articles

Newest articles

Subscribe today

Are you researching aviation incidents? Get access to AeroInside Insights, unlimited read access and receive the daily newsletter.

Pick your plan and subscribe

Partner

Blockaviation logo

A new way to document and demonstrate airworthiness compliance and aircraft value. Find out more.

Virtual Speech logo

ELITE Simulation Solutions is a leading global provider of Flight Simulation Training Devices, IFR training software as well as flight controls and related services. Find out more.

Get updates

Never miss an article from AeroInside. Subscribe to our free weekly newsletter and join 5141 existing subscribers.

By subscribing, you accept our terms and conditions and that you've read our privacy policy.

AeroInside Blog
Popular aircraft
Airbus A320
Boeing 737-800
Boeing 737-800 MAX
Popular airlines
American Airlines
United
Delta
Air Canada
Lufthansa
British Airways